Time;durP1;ratioP1;P1;durP2;ratioP2;P2;SDS_P1;SDS_P2;PMS_P1;PMS_P2;Temp;Humidity;BMP_temperature;BMP_pressure;BME280_temperature;BME280_humidity;BME280_pressure;Samples;Min_cycle;Max_cycle;Signal;HPM_P1;HPM_P2
2022/10/07 00:00:21;;;;;;;16.88;5.00;;;;;;;;;;4996333;28;92378;-78
2022/10/07 00:02:48;;;;;;;15.70;5.72;;;;;;;;;;4995642;28;94815;-77
2022/10/07 00:05:14;;;;;;;20.55;5.80;;;;;;;;;;4995577;28;93427;-77
2022/10/07 00:07:40;;;;;;;11.35;5.20;;;;;;;;;;4995341;28;92501;-77
2022/10/07 00:10:08;;;;;;;17.67;6.63;;;;;;;;;;4987174;28;94085;-77
2022/10/07 00:12:34;;;;;;;13.55;5.38;;;;;;;;;;4999454;28;94133;-77
2022/10/07 00:15:00;;;;;;;25.42;6.82;;;;;;;;;;4994263;28;94308;-77
2022/10/07 00:17:27;;;;;;;15.10;4.82;;;;;;;;;;4995163;28;93893;-79
2022/10/07 00:19:53;;;;;;;18.42;4.85;;;;;;;;;;4997236;28;91857;-77
2022/10/07 00:22:19;;;;;;;13.27;4.50;;;;;;;;;;4996230;28;93124;-78
2022/10/07 00:24:46;;;;;;;16.48;6.22;;;;;;;;;;4995084;28;93028;-78
2022/10/07 00:27:13;;;;;;;18.77;5.50;;;;;;;;;;4993448;28;95238;-78
2022/10/07 00:29:39;;;;;;;12.88;5.00;;;;;;;;;;4995679;28;94080;-78
2022/10/07 00:32:06;;;;;;;17.15;5.70;;;;;;;;;;4992211;28;93237;-77
2022/10/07 00:34:33;;;;;;;13.52;5.22;;;;;;;;;;4999549;28;92280;-78
2022/10/07 00:36:59;;;;;;;15.65;5.25;;;;;;;;;;4995229;28;93161;-78
2022/10/07 00:39:25;;;;;;;20.13;5.45;;;;;;;;;;4993359;28;94962;-77
2022/10/07 00:41:52;;;;;;;12.63;4.88;;;;;;;;;;4996401;28;92846;-76
2022/10/07 00:44:30;;;;;;;17.45;5.10;;;;;;;;;;4994812;28;92558;-77
2022/10/07 00:47:02;;;;;;;19.50;5.35;;;;;;;;;;4975921;28;92305;-77
2022/10/07 00:49:30;;;;;;;14.65;4.88;;;;;;;;;;4976753;28;93258;-77
2022/10/07 00:51:57;;;;;;;13.15;4.95;;;;;;;;;;4974273;28;96646;-77
2022/10/07 00:54:23;;;;;;;17.75;5.93;;;;;;;;;;4978533;28;92757;-77
2022/10/07 00:56:50;;;;;;;16.13;6.18;;;;;;;;;;4978649;28;96127;-77
2022/10/07 00:59:17;;;;;;;11.35;5.53;;;;;;;;;;4996233;28;92461;-77
2022/10/07 01:01:45;;;;;;;18.83;5.70;;;;;;;;;;4994896;28;94187;-77
2022/10/07 01:04:12;;;;;;;9.77;5.13;;;;;;;;;;4994977;28;93422;-78
2022/10/07 01:06:39;;;;;;;15.38;5.10;;;;;;;;;;4993677;28;94611;-77
2022/10/07 01:09:06;;;;;;;13.68;5.50;;;;;;;;;;4994953;28;94645;-78
2022/10/07 01:11:39;;;;;;;16.88;5.35;;;;;;;;;;4995861;28;92510;-77
2022/10/07 01:14:11;;;;;;;23.77;5.93;;;;;;;;;;4995333;28;92363;-77
2022/10/07 01:16:59;;;;;;;20.20;5.10;;;;;;;;;;4996557;28;94853;-77
2022/10/07 01:19:51;;;;;;;15.85;4.75;;;;;;;;;;4994695;28;92487;-77
2022/10/07 01:22:37;;;;;;;14.95;5.78;;;;;;;;;;4994707;28;93346;-77
2022/10/07 01:25:25;;;;;;;18.30;5.45;;;;;;;;;;4994009;28;93223;-76
2022/10/07 01:27:53;;;;;;;19.38;6.25;;;;;;;;;;4994321;28;92448;-77
2022/10/07 01:30:20;;;;;;;18.27;5.70;;;;;;;;;;5010412;28;95619;-77
2022/10/07 01:32:52;;;;;;;15.75;5.50;;;;;;;;;;4995805;28;93078;-77
2022/10/07 01:35:19;;;;;;;;;;;;;;;;;;4992046;28;93785;-77
2022/10/07 01:37:48;;;;;;;15.30;5.30;;;;;;;;;;4994872;28;120975;-77
2022/10/07 01:40:16;;;;;;;18.83;7.05;;;;;;;;;;4997235;28;93182;-77
2022/10/07 01:42:44;;;;;;;21.90;6.50;;;;;;;;;;4991619;28;94887;-77
2022/10/07 01:45:13;;;;;;;16.05;5.30;;;;;;;;;;4993054;28;95247;-76
2022/10/07 01:47:39;;;;;;;21.88;6.70;;;;;;;;;;4995793;28;92454;-78
2022/10/07 01:50:10;;;;;;;14.98;4.80;;;;;;;;;;5001002;28;95266;-79
2022/10/07 01:52:42;;;;;;;12.35;5.22;;;;;;;;;;4993970;28;94331;-79
2022/10/07 01:55:18;;;;;;;17.50;6.22;;;;;;;;;;4992884;28;92469;-78
2022/10/07 01:57:52;;;;;;;12.27;5.80;;;;;;;;;;4995034;28;92888;-77
2022/10/07 02:00:19;;;;;;;24.38;7.05;;;;;;;;;;4995246;28;93433;-78
2022/10/07 02:02:48;;;;;;;16.83;5.40;;;;;;;;;;5011771;28;92585;-78
2022/10/07 02:05:33;;;;;;;21.95;6.32;;;;;;;;;;4992136;28;93238;-79
2022/10/07 02:08:17;;;;;;;21.42;6.85;;;;;;;;;;5007623;28;94865;-77
2022/10/07 02:10:47;;;;;;;22.00;5.35;;;;;;;;;;4994314;28;94961;-78
2022/10/07 02:13:23;;;;;;;23.80;5.95;;;;;;;;;;4992638;28;94773;-78
2022/10/07 02:15:54;;;;;;;27.20;6.82;;;;;;;;;;5010801;28;92533;-78
2022/10/07 02:18:20;;;;;;;29.85;6.60;;;;;;;;;;5008973;28;95296;-78
2022/10/07 02:20:49;;;;;;;13.95;6.25;;;;;;;;;;5010170;28;95281;-78
2022/10/07 02:23:17;;;;;;;20.85;5.90;;;;;;;;;;5006959;28;94441;-77
2022/10/07 02:25:47;;;;;;;20.70;6.40;;;;;;;;;;4995787;28;94828;-78
2022/10/07 02:28:20;;;;;;;23.95;5.93;;;;;;;;;;4993236;28;93365;-78
2022/10/07 02:30:48;;;;;;;22.92;7.20;;;;;;;;;;4994513;28;92726;-78
2022/10/07 02:33:16;;;;;;;21.33;6.90;;;;;;;;;;4989659;28;98255;-78
2022/10/07 02:35:54;;;;;;;27.58;5.80;;;;;;;;;;4992584;28;92477;-78
2022/10/07 02:38:21;;;;;;;23.42;6.32;;;;;;;;;;4989954;28;95471;-77
2022/10/07 02:41:06;;;;;;;31.85;7.85;;;;;;;;;;4992675;28;95517;-78
2022/10/07 02:43:47;;;;;;;14.45;6.45;;;;;;;;;;4992331;28;92561;-78
2022/10/07 02:46:25;;;;;;;32.33;6.50;;;;;;;;;;4995024;28;95747;-78
2022/10/07 02:48:57;;;;;;;21.02;6.78;;;;;;;;;;4993312;28;92548;-78
2022/10/07 02:51:42;;;;;;;25.37;6.83;;;;;;;;;;4995626;28;94471;-78
2022/10/07 02:54:09;;;;;;;32.60;6.75;;;;;;;;;;4987650;28;95307;-77
2022/10/07 02:56:37;;;;;;;18.77;6.15;;;;;;;;;;4998346;28;92453;-77
2022/10/07 02:59:05;;;;;;;29.52;6.90;;;;;;;;;;4994370;28;94962;-78
2022/10/07 03:01:33;;;;;;;23.02;6.63;;;;;;;;;;4997526;28;94199;-78
2022/10/07 03:04:00;;;;;;;21.58;6.07;;;;;;;;;;4994900;28;92521;-78
2022/10/07 03:06:28;;;;;;;27.23;6.72;;;;;;;;;;4997374;28;93049;-78
2022/10/07 03:08:59;;;;;;;27.67;6.82;;;;;;;;;;5015011;28;95361;-78
2022/10/07 03:11:25;;;;;;;18.08;6.80;;;;;;;;;;4995130;28;95927;-79
2022/10/07 03:13:52;;;;;;;27.02;7.57;;;;;;;;;;4995948;28;93479;-77
2022/10/07 03:16:19;;;;;;;24.88;7.68;;;;;;;;;;4996759;28;91755;-78
2022/10/07 03:18:45;;;;;;;22.95;6.75;;;;;;;;;;4996730;28;94692;-78
2022/10/07 03:21:19;;;;;;;23.98;7.75;;;;;;;;;;4995185;28;93180;-78
2022/10/07 03:23:51;;;;;;;26.67;7.32;;;;;;;;;;4993379;28;94918;-78
2022/10/07 03:26:20;;;;;;;24.42;6.60;;;;;;;;;;4993828;28;95399;-78
2022/10/07 03:28:47;;;;;;;30.55;8.00;;;;;;;;;;4994090;28;94097;-77
2022/10/07 03:31:14;;;;;;;19.08;7.80;;;;;;;;;;5015731;28;92536;-78
2022/10/07 03:33:47;;;;;;;30.77;8.00;;;;;;;;;;4995121;28;94110;-78
2022/10/07 03:36:13;;;;;;;23.35;7.63;;;;;;;;;;4995206;28;93022;-78
2022/10/07 03:38:43;;;;;;;24.73;7.43;;;;;;;;;;4996245;28;94731;-78
2022/10/07 03:41:10;;;;;;;28.25;7.93;;;;;;;;;;4994419;28;94726;-77
2022/10/07 03:43:37;;;;;;;26.55;7.70;;;;;;;;;;4994379;28;93090;-77
2022/10/07 03:46:05;;;;;;;25.42;7.72;;;;;;;;;;4997188;28;92544;-77
2022/10/07 03:48:34;;;;;;;22.33;7.57;;;;;;;;;;4993508;28;95655;-77
2022/10/07 03:51:01;;;;;;;19.52;7.40;;;;;;;;;;4997138;28;92883;-77
2022/10/07 03:53:29;;;;;;;23.42;7.55;;;;;;;;;;4997673;28;93840;-77
2022/10/07 03:55:58;;;;;;;21.55;7.00;;;;;;;;;;4994817;28;92408;-76
2022/10/07 03:58:26;;;;;;;23.65;8.13;;;;;;;;;;4993275;28;92912;-76
2022/10/07 04:01:03;;;;;;;21.10;7.35;;;;;;;;;;4995869;28;95430;-76
2022/10/07 04:03:29;;;;;;;19.02;7.63;;;;;;;;;;4994697;28;92313;-79
2022/10/07 04:05:59;;;;;;;24.92;7.00;;;;;;;;;;4997632;28;92194;-77
2022/10/07 04:08:28;;;;;;;30.58;8.10;;;;;;;;;;4995628;28;95802;-77
2022/10/07 04:10:56;;;;;;;23.80;7.50;;;;;;;;;;4994015;28;92416;-78
2022/10/07 04:13:23;;;;;;;26.23;7.82;;;;;;;;;;4991736;28;95173;-78
2022/10/07 04:15:50;;;;;;;23.63;8.00;;;;;;;;;;4997192;28;95284;-77
2022/10/07 04:18:18;;;;;;;28.02;7.68;;;;;;;;;;4994594;28;95334;-78
2022/10/07 04:20:44;;;;;;;19.65;7.45;;;;;;;;;;4994338;28;94179;-77
2022/10/07 04:23:11;;;;;;;23.38;7.50;;;;;;;;;;4996619;28;92477;-78
2022/10/07 04:25:42;;;;;;;20.13;7.63;;;;;;;;;;4993826;28;93962;-78
2022/10/07 04:28:14;;;;;;;32.05;10.30;;;;;;;;;;4993904;28;95849;-78
2022/10/07 04:30:42;;;;;;;27.35;7.57;;;;;;;;;;4991338;28;91945;-78
2022/10/07 04:33:12;;;;;;;21.83;6.65;;;;;;;;;;4995021;28;95166;-77
2022/10/07 04:35:39;;;;;;;20.35;7.15;;;;;;;;;;5010509;28;95871;-77
2022/10/07 04:38:07;;;;;;;19.38;7.65;;;;;;;;;;4995798;28;95318;-77
2022/10/07 04:40:37;;;;;;;27.58;7.03;;;;;;;;;;4994874;28;95855;-78
2022/10/07 04:43:19;;;;;;;24.10;7.47;;;;;;;;;;4993686;28;94257;-78
2022/10/07 04:45:59;;;;;;;25.05;7.97;;;;;;;;;;4991161;28;93876;-78
2022/10/07 04:48:26;;;;;;;34.58;7.25;;;;;;;;;;5011279;28;95410;-78
2022/10/07 04:50:53;;;;;;;28.02;7.13;;;;;;;;;;5011555;28;92501;-78
2022/10/07 04:53:21;;;;;;;17.52;6.82;;;;;;;;;;4992723;28;95346;-78
2022/10/07 04:55:50;;;;;;;31.17;7.63;;;;;;;;;;4994726;28;94754;-78
2022/10/07 04:58:19;;;;;;;19.35;6.38;;;;;;;;;;4997470;28;92491;-78
2022/10/07 05:00:47;;;;;;;25.23;6.80;;;;;;;;;;4993882;28;94038;-78
2022/10/07 05:03:15;;;;;;;19.33;6.03;;;;;;;;;;4989918;28;95034;-78
2022/10/07 05:05:43;;;;;;;33.90;7.20;;;;;;;;;;4995088;28;95067;-77
2022/10/07 05:08:12;;;;;;;20.55;6.72;;;;;;;;;;4994169;28;94956;-77
2022/10/07 05:10:39;;;;;;;15.73;5.07;;;;;;;;;;4994412;28;92479;-77
2022/10/07 05:13:08;;;;;;;21.13;6.10;;;;;;;;;;4993604;28;94055;-77
2022/10/07 05:15:34;;;;;;;17.33;5.40;;;;;;;;;;4974293;28;95449;-77
2022/10/07 05:18:02;;;;;;;24.50;5.65;;;;;;;;;;4981585;28;92949;-79
2022/10/07 05:20:28;;;;;;;25.42;6.22;;;;;;;;;;4997031;28;93138;-77
2022/10/07 05:22:55;;;;;;;15.60;5.10;;;;;;;;;;4994317;28;94602;-77
2022/10/07 05:25:21;;;;;;;20.83;6.30;;;;;;;;;;4993065;28;94245;-77
2022/10/07 05:27:52;;;;;;;27.27;6.97;;;;;;;;;;4993399;28;95456;-77
2022/10/07 05:30:19;;;;;;;18.75;6.22;;;;;;;;;;4994225;28;92473;-77
2022/10/07 05:32:45;;;;;;;20.23;6.10;;;;;;;;;;5010135;28;95509;-77
2022/10/07 05:35:12;;;;;;;18.48;5.43;;;;;;;;;;4992229;28;93042;-76
2022/10/07 05:37:39;;;;;;;13.40;5.05;;;;;;;;;;4995873;28;92418;-77
2022/10/07 05:40:06;;;;;;;20.60;5.32;;;;;;;;;;4994452;28;95203;-77
2022/10/07 05:42:33;;;;;;;19.65;5.95;;;;;;;;;;4997724;28;94360;-77
2022/10/07 05:45:00;;;;;;;22.88;6.07;;;;;;;;;;4993935;28;95674;-77
2022/10/07 05:47:26;;;;;;;23.48;6.05;;;;;;;;;;4994028;28;94859;-77
2022/10/07 05:49:57;;;;;;;24.48;5.20;;;;;;;;;;4991564;28;92550;-76
2022/10/07 05:52:23;;;;;;;23.27;4.60;;;;;;;;;;4992658;28;94903;-77
2022/10/07 05:54:50;;;;;;;21.42;5.15;;;;;;;;;;5007164;28;93151;-78
2022/10/07 05:57:17;;;;;;;19.98;5.75;;;;;;;;;;4993204;28;92577;-78
2022/10/07 05:59:43;;;;;;;20.02;4.57;;;;;;;;;;4994013;28;95543;-76
2022/10/07 06:02:14;;;;;;;21.85;5.38;;;;;;;;;;4992409;28;95621;-77
2022/10/07 06:04:42;;;;;;;19.15;6.15;;;;;;;;;;4996017;28;93804;-77
2022/10/07 06:07:09;;;;;;;15.90;4.72;;;;;;;;;;4995782;28;93295;-77
2022/10/07 06:15:09;;;;;;;17.92;6.80;;;;;;;;;;4992760;28;93178;-77
2022/10/07 06:17:43;;;;;;;24.75;5.25;;;;;;;;;;4991607;28;94809;-76
2022/10/07 06:20:13;;;;;;;33.15;5.43;;;;;;;;;;4993553;28;96716;-76
2022/10/07 06:22:39;;;;;;;15.20;4.50;;;;;;;;;;4990680;28;96174;-77
2022/10/07 06:25:06;;;;;;;22.40;5.13;;;;;;;;;;5008714;28;92544;-77
2022/10/07 06:27:33;;;;;;;16.42;5.07;;;;;;;;;;5013152;28;95936;-77
2022/10/07 06:30:00;;;;;;;19.88;5.05;;;;;;;;;;4994121;28;92892;-77
2022/10/07 06:32:28;;;;;;;25.02;5.22;;;;;;;;;;4994285;28;94026;-77
2022/10/07 06:34:54;;;;;;;25.55;5.35;;;;;;;;;;4993694;28;92432;-76
2022/10/07 06:37:21;;;;;;;22.05;4.75;;;;;;;;;;4990817;28;92811;-76
2022/10/07 06:39:48;;;;;;;26.10;4.75;;;;;;;;;;4989500;28;94205;-76
2022/10/07 06:42:14;;;;;;;20.25;4.93;;;;;;;;;;4992575;28;95578;-77
2022/10/07 06:45:03;;;;;;;40.88;7.97;;;;;;;;;;4986696;28;92553;-77
2022/10/07 06:47:30;;;;;;;18.15;4.93;;;;;;;;;;4989833;28;93662;-81
2022/10/07 06:49:57;;;;;;;14.07;4.38;;;;;;;;;;4995065;28;95077;-77
2022/10/07 06:52:23;;;;;;;19.58;4.82;;;;;;;;;;5009504;28;95215;-75
2022/10/07 06:54:51;;;;;;;13.90;5.45;;;;;;;;;;4991416;28;95763;-76
2022/10/07 06:57:17;;;;;;;14.30;4.15;;;;;;;;;;4994322;28;92481;-77
2022/10/07 07:00:04;;;;;;;25.38;5.30;;;;;;;;;;4992803;28;95883;-77
2022/10/07 07:02:34;;;;;;;14.70;4.70;;;;;;;;;;4992931;28;95704;-77
2022/10/07 07:05:04;;;;;;;23.65;5.28;;;;;;;;;;4992976;28;92465;-77
2022/10/07 07:07:31;;;;;;;17.38;4.10;;;;;;;;;;4992012;28;95264;-77
2022/10/07 07:09:58;;;;;;;23.85;4.70;;;;;;;;;;4995716;28;93914;-77
2022/10/07 07:12:25;;;;;;;22.75;5.30;;;;;;;;;;4992477;28;95149;-77
2022/10/07 07:14:53;;;;;;;25.70;4.22;;;;;;;;;;4992926;28;95755;-76
2022/10/07 07:17:20;;;;;;;28.73;4.57;;;;;;;;;;4992526;28;92881;-76
2022/10/07 07:19:46;;;;;;;21.60;4.35;;;;;;;;;;4993652;28;92719;-76
2022/10/07 07:22:13;;;;;;;23.45;4.65;;;;;;;;;;4992224;28;95907;-76
2022/10/07 07:24:41;;;;;;;14.82;4.05;;;;;;;;;;4993130;28;92994;-77
2022/10/07 07:27:07;;;;;;;17.20;4.05;;;;;;;;;;4992198;28;94903;-77
2022/10/07 07:29:34;;;;;;;21.50;4.70;;;;;;;;;;4992961;28;95669;-77
2022/10/07 07:32:03;;;;;;;27.15;5.55;;;;;;;;;;4994526;28;96499;-77
2022/10/07 07:34:35;;;;;;;16.23;4.40;;;;;;;;;;4991647;28;95425;-77
2022/10/07 07:37:02;;;;;;;18.98;4.55;;;;;;;;;;4992244;28;92547;-76
2022/10/07 07:39:34;;;;;;;;;;;;;;;;;;4996463;28;95131;-77
2022/10/07 07:42:06;;;;;;;20.17;3.63;;;;;;;;;;4996015;28;93253;-76
2022/10/07 07:44:35;;;;;;;16.27;3.50;;;;;;;;;;4997346;28;92654;-76
2022/10/07 07:47:03;;;;;;;20.58;4.20;;;;;;;;;;4994906;28;93400;-76
2022/10/07 07:49:30;;;;;;;20.23;4.57;;;;;;;;;;4995431;28;92471;-77
2022/10/07 07:51:57;;;;;;;17.67;4.05;;;;;;;;;;4995824;28;92676;-77
2022/10/07 07:54:28;;;;;;;20.52;3.70;;;;;;;;;;4998180;28;95678;-76
2022/10/07 07:56:56;;;;;;;22.15;4.07;;;;;;;;;;4995605;28;94762;-77
2022/10/07 07:59:25;;;;;;;18.17;3.83;;;;;;;;;;4995923;28;97742;-76
2022/10/07 08:01:54;;;;;;;18.25;3.65;;;;;;;;;;4994992;28;93533;-76
2022/10/07 08:04:22;;;;;;;15.32;3.80;;;;;;;;;;4996891;28;92503;-77
2022/10/07 08:06:54;;;;;;;15.48;3.30;;;;;;;;;;4996343;28;93467;-75
2022/10/07 08:09:22;;;;;;;11.50;3.45;;;;;;;;;;5011925;28;94101;-75
2022/10/07 08:12:00;;;;;;;11.35;3.35;;;;;;;;;;4997075;28;92762;-75
2022/10/07 08:14:36;;;;;;;23.83;3.95;;;;;;;;;;4998100;28;92748;-76
2022/10/07 08:17:10;;;;;;;23.58;3.72;;;;;;;;;;4997832;28;93219;-75
2022/10/07 08:19:37;;;;;;;12.88;3.67;;;;;;;;;;4996664;28;93557;-75
2022/10/07 08:22:06;;;;;;;13.02;3.50;;;;;;;;;;4993915;28;96400;-76
2022/10/07 08:24:34;;;;;;;16.67;3.92;;;;;;;;;;4996044;28;92425;-76
2022/10/07 08:27:01;;;;;;;21.30;4.70;;;;;;;;;;4995304;28;93911;-76
2022/10/07 08:29:30;;;;;;;13.13;3.15;;;;;;;;;;4996430;28;93006;-74
2022/10/07 08:31:57;;;;;;;24.65;3.75;;;;;;;;;;4995359;28;92465;-76
2022/10/07 08:34:24;;;;;;;12.43;3.40;;;;;;;;;;4997311;28;93148;-76
2022/10/07 08:36:51;;;;;;;13.02;3.33;;;;;;;;;;4995939;28;93364;-77
2022/10/07 08:39:25;;;;;;;19.50;3.60;;;;;;;;;;4999427;28;91702;-76
2022/10/07 08:41:59;;;;;;;15.30;4.45;;;;;;;;;;4994692;28;94713;-76
2022/10/07 08:44:31;;;;;;;24.48;4.22;;;;;;;;;;4995924;28;92443;-76
2022/10/07 08:47:16;;;;;;;17.42;3.90;;;;;;;;;;4992592;28;95576;-74
2022/10/07 08:50:06;;;;;;;18.85;3.97;;;;;;;;;;4996292;28;94619;-76
2022/10/07 08:52:33;;;;;;;21.40;3.78;;;;;;;;;;4995987;28;92667;-76
2022/10/07 08:55:00;;;;;;;18.48;3.75;;;;;;;;;;5000346;28;92940;-76
2022/10/07 08:57:33;;;;;;;19.13;4.18;;;;;;;;;;4996429;28;94134;-77
2022/10/07 09:00:02;;;;;;;19.25;4.30;;;;;;;;;;4995862;28;92563;-77
2022/10/07 09:02:33;;;;;;;20.15;4.25;;;;;;;;;;4999576;28;93824;-77
2022/10/07 09:05:11;;;;;;;23.35;4.57;;;;;;;;;;4996187;28;91751;-76
2022/10/07 09:07:44;;;;;;;20.92;4.50;;;;;;;;;;5011528;28;93411;-76
2022/10/07 09:10:30;;;;;;;17.48;4.20;;;;;;;;;;4996117;28;93786;-76
2022/10/07 09:12:59;;;;;;;27.38;5.00;;;;;;;;;;4993914;28;94999;-76
2022/10/07 09:15:32;;;;;;;14.18;3.45;;;;;;;;;;4996496;28;95163;-76
2022/10/07 09:18:03;;;;;;;16.90;4.55;;;;;;;;;;4995757;28;95676;-76
2022/10/07 09:20:38;;;;;;;11.60;3.45;;;;;;;;;;4995760;28;92844;-76
2022/10/07 09:23:11;;;;;;;18.50;3.90;;;;;;;;;;4999414;28;94484;-76
2022/10/07 09:25:40;;;;;;;22.50;5.00;;;;;;;;;;4995688;28;92530;-76
2022/10/07 09:28:12;;;;;;;15.52;4.90;;;;;;;;;;4995445;28;94276;-75
2022/10/07 09:30:38;;;;;;;15.20;3.92;;;;;;;;;;4996596;28;92512;-76
2022/10/07 09:33:10;;;;;;;18.35;4.18;;;;;;;;;;4994835;28;92887;-76
2022/10/07 09:35:39;;;;;;;24.80;4.75;;;;;;;;;;4995074;28;93927;-80
2022/10/07 09:38:08;;;;;;;19.35;4.72;;;;;;;;;;4993645;28;95141;-75
2022/10/07 09:43:28;;;;;;;14.68;4.00;;;;;;;;;;4994972;28;94132;-76
2022/10/07 09:46:01;;;;;;;11.15;3.75;;;;;;;;;;5006095;28;94148;-76
2022/10/07 09:48:32;;;;;;;19.23;3.95;;;;;;;;;;4991232;28;93828;-76
2022/10/07 09:51:18;;;;;;;16.20;4.20;;;;;;;;;;4992197;28;93108;-75
2022/10/07 09:54:04;;;;;;;17.83;4.07;;;;;;;;;;4993183;28;92558;-76
2022/10/07 09:56:33;;;;;;;17.63;3.80;;;;;;;;;;4992997;28;94005;-76
2022/10/07 09:59:29;;;;;;;20.88;4.07;;;;;;;;;;4988529;28;94057;-76
2022/10/07 10:01:55;;;;;;;16.48;4.25;;;;;;;;;;4976999;28;92804;-76
2022/10/07 10:04:45;;;;;;;22.63;4.40;;;;;;;;;;4995444;28;94665;-76
2022/10/07 10:07:26;;;;;;;13.23;3.70;;;;;;;;;;4994577;28;94463;-77
2022/10/07 10:09:53;;;;;;;18.52;4.55;;;;;;;;;;4996292;28;92886;-77
2022/10/07 10:12:22;;;;;;;16.52;4.85;;;;;;;;;;4993506;28;94988;-77
2022/10/07 10:14:53;;;;;;;14.65;4.60;;;;;;;;;;4994138;28;92440;-77
2022/10/07 10:17:38;;;;;;;18.45;4.35;;;;;;;;;;4994018;28;94512;-77
2022/10/07 10:20:22;;;;;;;13.85;4.10;;;;;;;;;;4993825;28;94315;-77
2022/10/07 10:22:49;;;;;;;17.85;4.50;;;;;;;;;;4992543;28;91746;-76
2022/10/07 10:28:10;;;;;;;12.65;3.20;;;;;;;;;;4992519;28;94101;-76
2022/10/07 10:30:39;;;;;;;20.05;3.55;;;;;;;;;;4991036;28;94886;-76
2022/10/07 10:33:09;;;;;;;20.13;3.92;;;;;;;;;;4997232;28;95876;-76
2022/10/07 10:35:58;;;;;;;21.20;3.45;;;;;;;;;;4993814;28;92916;-78
2022/10/07 10:38:32;;;;;;;13.10;4.13;;;;;;;;;;4986947;28;92485;-76
2022/10/07 10:41:10;;;;;;;21.52;3.45;;;;;;;;;;4994534;28;93240;-77
2022/10/07 10:43:49;;;;;;;16.58;3.45;;;;;;;;;;4991666;28;92471;-77
2022/10/07 10:46:24;;;;;;;12.32;3.65;;;;;;;;;;4989977;28;94078;-77
2022/10/07 10:48:56;;;;;;;20.05;3.92;;;;;;;;;;4992874;28;92916;-76
2022/10/07 10:51:30;;;;;;;20.33;3.88;;;;;;;;;;4988195;28;92607;-77
2022/10/07 10:54:16;;;;;;;19.67;4.00;;;;;;;;;;4993058;28;93015;-77
2022/10/07 10:56:52;;;;;;;22.58;4.13;;;;;;;;;;4993712;28;98349;-77
2022/10/07 10:59:33;;;;;;;12.10;3.65;;;;;;;;;;4992681;28;96506;-77
2022/10/07 11:02:17;;;;;;;13.95;4.10;;;;;;;;;;4991251;28;94133;-77
2022/10/07 11:04:44;;;;;;;17.55;3.22;;;;;;;;;;4975223;28;93020;-76
2022/10/07 11:07:19;;;;;;;14.57;3.15;;;;;;;;;;4988494;28;94250;-77
2022/10/07 11:09:50;;;;;;;19.88;3.83;;;;;;;;;;4994430;28;93460;-77
2022/10/07 11:12:38;;;;;;;15.57;3.20;;;;;;;;;;4992741;28;92884;-76
2022/10/07 11:15:18;;;;;;;18.92;3.95;;;;;;;;;;4996597;28;93370;-75
2022/10/07 11:17:45;;;;;;;12.70;3.30;;;;;;;;;;4995548;28;93265;-76
2022/10/07 11:20:12;;;;;;;17.45;3.63;;;;;;;;;;4999543;28;92465;-76
2022/10/07 11:22:42;;;;;;;13.10;3.22;;;;;;;;;;4994106;28;96461;-76
2022/10/07 11:25:22;;;;;;;14.15;3.50;;;;;;;;;;4996550;28;92291;-76
2022/10/07 11:27:49;;;;;;;16.77;3.58;;;;;;;;;;4997484;28;93343;-76
2022/10/07 11:30:18;;;;;;;18.00;4.00;;;;;;;;;;4997502;28;93034;-75
2022/10/07 11:32:53;;;;;;;15.52;3.65;;;;;;;;;;4995952;28;92840;-76
2022/10/07 11:35:37;;;;;;;17.52;3.05;;;;;;;;;;4987209;28;93297;-76
2022/10/07 11:38:11;;;;;;;16.92;4.10;;;;;;;;;;4991088;28;94457;-77
2022/10/07 11:40:44;;;;;;;17.08;3.85;;;;;;;;;;4997691;28;91855;-77
2022/10/07 11:43:10;;;;;;;;;;;;;;;;;;4994392;28;94185;-77
2022/10/07 11:45:39;;;;;;;14.88;3.05;;;;;;;;;;4989717;28;118467;-77
2022/10/07 11:48:09;;;;;;;12.00;3.08;;;;;;;;;;4989658;28;95972;-77
2022/10/07 11:50:40;;;;;;;14.43;3.40;;;;;;;;;;4996011;28;94617;-77
2022/10/07 11:53:08;;;;;;;19.55;3.88;;;;;;;;;;4990491;28;92618;-76
2022/10/07 11:55:41;;;;;;;14.80;3.88;;;;;;;;;;4993209;28;93030;-77
2022/10/07 11:58:20;;;;;;;10.43;3.25;;;;;;;;;;4994486;28;93410;-77
2022/10/07 12:00:46;;;;;;;15.00;2.92;;;;;;;;;;4994869;28;93455;-77
2022/10/07 12:03:16;;;;;;;10.63;2.83;;;;;;;;;;4999198;28;93529;-77
2022/10/07 12:05:48;;;;;;;13.88;3.13;;;;;;;;;;4996488;28;91712;-77
2022/10/07 12:08:14;;;;;;;;;;;;;;;;;;4995838;28;93518;-77
2022/10/07 12:10:41;;;;;;;11.02;2.67;;;;;;;;;;4994801;28;123637;-76
2022/10/07 12:13:08;;;;;;;13.80;3.60;;;;;;;;;;4990192;28;97035;-74
2022/10/07 12:15:40;;;;;;;18.15;3.97;;;;;;;;;;4994815;28;95846;-76
2022/10/07 12:18:11;;;;;;;22.10;3.67;;;;;;;;;;4995193;28;93291;-77
2022/10/07 12:20:49;;;;;;;14.95;2.92;;;;;;;;;;4996928;28;93375;-77
2022/10/07 12:23:16;;;;;;;12.00;3.15;;;;;;;;;;4995154;28;92997;-77
2022/10/07 12:25:46;;;;;;;12.02;2.72;;;;;;;;;;4999238;28;92597;-77
2022/10/07 12:28:14;;;;;;;10.00;3.08;;;;;;;;;;4994312;28;92656;-77
2022/10/07 12:30:53;;;;;;;12.48;2.63;;;;;;;;;;4982611;28;92470;-76
2022/10/07 12:33:27;;;;;;;14.90;2.75;;;;;;;;;;4997250;28;92532;-77
2022/10/07 12:35:54;;;;;;;12.27;3.45;;;;;;;;;;4980806;28;94186;-77
2022/10/07 12:38:23;;;;;;;11.45;2.65;;;;;;;;;;4975153;28;95995;-77
2022/10/07 12:41:00;;;;;;;7.80;2.80;;;;;;;;;;4979513;28;92490;-78
2022/10/07 12:43:33;;;;;;;15.80;3.03;;;;;;;;;;4995597;28;93867;-78
2022/10/07 12:46:00;;;;;;;15.43;3.17;;;;;;;;;;5010864;28;94262;-75
2022/10/07 12:48:30;;;;;;;14.20;2.33;;;;;;;;;;4999044;28;92973;-77
2022/10/07 12:50:57;;;;;;;12.15;3.13;;;;;;;;;;4995142;28;94202;-77
2022/10/07 12:53:25;;;;;;;9.90;2.75;;;;;;;;;;4995924;28;92404;-78
2022/10/07 12:55:53;;;;;;;13.13;2.40;;;;;;;;;;4996786;28;92556;-76
2022/10/07 13:01:10;;;;;;;12.20;4.03;;;;;;;;;;4976150;28;92424;-77
2022/10/07 13:03:42;;;;;;;10.05;2.95;;;;;;;;;;4974923;28;94720;-78
2022/10/07 13:06:10;;;;;;;7.60;2.70;;;;;;;;;;4990211;28;94096;-79
2022/10/07 13:09:19;;;;;;;10.57;2.72;;;;;;;;;;4996279;28;92893;-78
2022/10/07 13:12:07;;;;;;;12.27;3.28;;;;;;;;;;4956575;28;93633;-76
2022/10/07 13:14:34;;;;;;;17.27;3.78;;;;;;;;;;4953742;28;92492;-78
2022/10/07 13:17:19;;;;;;;14.77;3.45;;;;;;;;;;4979211;28;93974;-77
2022/10/07 13:19:59;;;;;;;11.43;2.97;;;;;;;;;;4995214;28;92296;-77
2022/10/07 13:22:25;;;;;;;13.75;2.97;;;;;;;;;;4995985;28;91727;-78
2022/10/07 13:24:55;;;;;;;13.80;3.20;;;;;;;;;;4995132;28;93095;-77
2022/10/07 13:27:26;;;;;;;11.00;3.15;;;;;;;;;;4995836;28;93392;-77
2022/10/07 13:29:54;;;;;;;15.23;2.90;;;;;;;;;;4993891;28;94855;-76
2022/10/07 13:32:23;;;;;;;14.98;2.90;;;;;;;;;;4997205;28;92355;-77
2022/10/07 13:34:53;;;;;;;11.75;3.45;;;;;;;;;;4995304;28;92671;-77
2022/10/07 13:37:33;;;;;;;13.40;3.15;;;;;;;;;;4995026;28;93911;-77
2022/10/07 13:40:18;;;;;;;10.95;2.90;;;;;;;;;;4994635;28;93176;-77
2022/10/07 13:42:51;;;;;;;7.65;2.65;;;;;;;;;;4995745;28;92430;-77
2022/10/07 13:45:17;;;;;;;14.63;3.15;;;;;;;;;;4995503;28;94501;-77
2022/10/07 13:47:45;;;;;;;12.43;3.22;;;;;;;;;;4995064;28;93743;-76
2022/10/07 13:50:17;;;;;;;11.48;2.42;;;;;;;;;;4995430;28;92992;-77
2022/10/07 13:52:45;;;;;;;9.68;2.80;;;;;;;;;;4995914;28;93184;-76
2022/10/07 13:55:25;;;;;;;8.55;3.30;;;;;;;;;;4995900;28;96649;-77
2022/10/07 13:57:56;;;;;;;7.57;2.55;;;;;;;;;;4994971;28;96864;-77
2022/10/07 14:00:23;;;;;;;10.00;2.90;;;;;;;;;;4994463;28;94275;-77
2022/10/07 14:02:49;;;;;;;9.23;2.30;;;;;;;;;;4996120;28;92432;-78
2022/10/07 14:05:17;;;;;;;7.30;3.00;;;;;;;;;;4995281;28;92974;-76
2022/10/07 14:07:44;;;;;;;11.68;3.38;;;;;;;;;;4994315;28;93277;-76
2022/10/07 14:10:12;;;;;;;13.43;3.20;;;;;;;;;;4993308;28;92790;-76
2022/10/07 14:12:43;;;;;;;9.75;3.20;;;;;;;;;;4995949;28;93044;-77
2022/10/07 14:15:15;;;;;;;7.65;2.30;;;;;;;;;;4993784;28;94704;-77
2022/10/07 14:17:48;;;;;;;11.88;3.00;;;;;;;;;;4998608;28;92361;-76
2022/10/07 14:20:17;;;;;;;7.45;2.30;;;;;;;;;;4993032;28;97050;-76
2022/10/07 14:22:46;;;;;;;13.70;3.25;;;;;;;;;;4994408;28;92938;-77
2022/10/07 14:25:20;;;;;;;16.85;3.55;;;;;;;;;;4994104;28;92969;-76
2022/10/07 14:27:56;;;;;;;13.32;3.70;;;;;;;;;;4994887;28;94045;-76
2022/10/07 14:30:23;;;;;;;7.82;2.53;;;;;;;;;;4993676;28;92520;-76
2022/10/07 14:36:14;;;;;;;11.27;2.72;;;;;;;;;;4994170;28;93367;-76
2022/10/07 14:38:41;;;;;;;14.00;3.03;;;;;;;;;;4995402;28;91702;-76
2022/10/07 14:41:09;;;;;;;13.35;2.95;;;;;;;;;;4995357;28;93275;-76
2022/10/07 14:43:37;;;;;;;11.38;3.40;;;;;;;;;;4987620;28;92698;-76
2022/10/07 14:46:23;;;;;;;12.23;2.45;;;;;;;;;;4990783;28;95569;-77
2022/10/07 14:48:50;;;;;;;11.55;3.65;;;;;;;;;;4988150;28;95362;-76
2022/10/07 14:51:18;;;;;;;15.13;3.63;;;;;;;;;;4995682;28;94545;-77
2022/10/07 14:53:48;;;;;;;9.68;3.17;;;;;;;;;;4995779;28;93206;-76
2022/10/07 14:56:18;;;;;;;13.60;3.17;;;;;;;;;;4994652;28;94467;-76
2022/10/07 14:58:44;;;;;;;7.80;2.40;;;;;;;;;;4999259;28;92384;-76
2022/10/07 15:01:11;;;;;;;15.93;2.63;;;;;;;;;;4998080;28;93602;-76
2022/10/07 15:03:37;;;;;;;11.15;3.20;;;;;;;;;;5000487;28;93435;-76
2022/10/07 15:06:05;;;;;;;6.95;2.60;;;;;;;;;;4997203;28;93194;-76
2022/10/07 15:08:31;;;;;;;13.18;3.00;;;;;;;;;;4996883;28;93217;-76